地図

経路データ

SID SEASON NUMBER BASIN SUBBASIN NAME ISO_TIME NATURE LAT LON WMO_WIND WMO_PRES WMO_AGENCY TRACK_TYPE DIST2LAND LANDFALL IFLAG USA_AGENCY USA_ATCF_ID USA_LAT USA_LON USA_RECORD USA_STATUS USA_WIND USA_PRES USA_SSHS USA_R34_NE USA_R34_SE USA_R34_SW USA_R34_NW USA_R50_NE USA_R50_SE USA_R50_SW USA_R50_NW USA_R64_NE USA_R64_SE USA_R64_SW USA_R64_NW USA_POCI USA_ROCI USA_RMW USA_EYE TOKYO_LAT TOKYO_LON TOKYO_GRADE TOKYO_WIND TOKYO_PRES TOKYO_R50_DIR TOKYO_R50_LONG TOKYO_R50_SHORT TOKYO_R30_DIR TOKYO_R30_LONG TOKYO_R30_SHORT TOKYO_LAND CMA_LAT CMA_LON CMA_CAT CMA_WIND CMA_PRES HKO_LAT HKO_LON HKO_CAT HKO_WIND HKO_PRES NEWDELHI_LAT NEWDELHI_LON NEWDELHI_GRADE NEWDELHI_WIND NEWDELHI_PRES NEWDELHI_CI NEWDELHI_DP NEWDELHI_POCI REUNION_LAT REUNION_LON REUNION_TYPE REUNION_WIND REUNION_PRES REUNION_TNUM REUNION_CI REUNION_RMW REUNION_R34_NE REUNION_R34_SE REUNION_R34_SW REUNION_R34_NW REUNION_R50_NE REUNION_R50_SE REUNION_R50_SW REUNION_R50_NW REUNION_R64_NE REUNION_R64_SE REUNION_R64_SW REUNION_R64_NW BOM_LAT BOM_LON BOM_TYPE BOM_WIND BOM_PRES BOM_TNUM BOM_CI BOM_RMW BOM_R34_NE BOM_R34_SE BOM_R34_SW BOM_R34_NW BOM_R50_NE BOM_R50_SE BOM_R50_SW BOM_R50_NW BOM_R64_NE BOM_R64_SE BOM_R64_SW BOM_R64_NW BOM_ROCI BOM_POCI BOM_EYE BOM_POS_METHOD BOM_PRES_METHOD NADI_LAT NADI_LON NADI_CAT NADI_WIND NADI_PRES WELLINGTON_LAT WELLINGTON_LON WELLINGTON_WIND WELLINGTON_PRES DS824_LAT DS824_LON DS824_STAGE DS824_WIND DS824_PRES TD9636_LAT TD9636_LON TD9636_STAGE TD9636_WIND TD9636_PRES TD9635_LAT TD9635_LON TD9635_WIND TD9635_PRES TD9635_ROCI NEUMANN_LAT NEUMANN_LON NEUMANN_CLASS NEUMANN_WIND NEUMANN_PRES MLC_LAT MLC_LON MLC_CLASS MLC_WIND MLC_PRES USA_GUST BOM_GUST BOM_GUST_PER REUNION_GUST REUNION_GUST_PER USA_SEAHGT USA_SEARAD_NE USA_SEARAD_SE USA_SEARAD_SW USA_SEARAD_NW STORM_SPEED STORM_DIR
1896275N13118 1896 39 WP MM NOT_NAMED 1896-09-30 16:00:00 NR 13.4000 118.000 main 248 248 __________O___ -1 13.4000 118.000 7 8 284
1896275N13118 1896 39 WP MM NOT_NAMED 1896-09-30 18:00:00 NR 13.4638 117.733 main 281 281 __________P___ -1 13.4638 117.733 7 8 284
1896275N13118 1896 39 WP MM NOT_NAMED 1896-09-30 21:00:00 NR 13.5603 117.333 main 325 325 __________P___ -1 13.5603 117.333 7 8 284
1896275N13118 1896 39 WP MM NOT_NAMED 1896-10-01 00:00:00 NR 13.6596 116.933 main 366 366 __________P___ -1 13.6596 116.933 7 8 285
1896275N13118 1896 39 WP MM NOT_NAMED 1896-10-01 03:00:00 NR 13.7638 116.533 main 403 403 __________P___ -1 13.7638 116.533 7 8 285
1896275N13118 1896 39 WP MM NOT_NAMED 1896-10-01 04:00:00 NR 13.8000 116.400 main 414 414 __________O___ -1 13.8000 116.400 3 8 286
1896275N13118 1896 39 WP MM NOT_NAMED 1896-10-01 06:00:00 NR 13.8744 116.133 main 442 442 __________P___ -1 13.8744 116.133 3 8 286
1896275N13118 1896 39 WP MM NOT_NAMED 1896-10-01 09:00:00 NR 13.9863 115.733 main 478 478 __________P___ -1 13.9863 115.733 3 8 286
1896275N13118 1896 39 WP MM NOT_NAMED 1896-10-01 12:00:00 NR 14.0901 115.333 main 515 515 __________P___ -1 14.0901 115.333 3 8 284
1896275N13118 1896 39 WP MM NOT_NAMED 1896-10-01 15:00:00 NR 14.1766 114.933 main 553 553 __________P___ -1 14.1766 114.933 3 8 282
1896275N13118 1896 39 WP MM NOT_NAMED 1896-10-01 16:00:00 NR 14.2000 114.800 main 563 560 __________O___ -1 14.2000 114.800 4 8 279
1896275N13118 1896 39 WP MM NOT_NAMED 1896-10-01 18:00:00 NR 14.2334 114.549 main 560 530 __________P___ -1 14.2334 114.549 4 7 276
1896275N13118 1896 39 WP MM NOT_NAMED 1896-10-01 21:00:00 NR 14.2648 114.173 main 530 487 __________P___ -1 14.2648 114.173 4 7 274
1896275N13118 1896 39 WP MM NOT_NAMED 1896-10-02 00:00:00 NR 14.2822 113.780 main 487 444 __________P___ -1 14.2822 113.780 4 8 272
1896275N13118 1896 39 WP MM NOT_NAMED 1896-10-02 03:00:00 NR 14.2951 113.353 main 444 423 __________P___ -1 14.2951 113.353 4 8 272
1896275N13118 1896 39 WP MM NOT_NAMED 1896-10-02 04:00:00 NR 14.3000 113.200 main 423 391 __________O___ -1 14.3000 113.200 4 10 274
1896275N13118 1896 39 WP MM NOT_NAMED 1896-10-02 06:00:00 NR 14.3247 112.860 main 391 328 __________P___ -1 14.3247 112.860 4 10 274
1896275N13118 1896 39 WP MM NOT_NAMED 1896-10-02 09:00:00 NR 14.3619 112.312 main 328 264 __________P___ -1 14.3619 112.312 4 11 273
1896275N13118 1896 39 WP MM NOT_NAMED 1896-10-02 12:00:00 NR 14.3907 111.742 main 264 212 __________P___ -1 14.3907 111.742 4 11 272
1896275N13118 1896 39 WP MM NOT_NAMED 1896-10-02 15:00:00 NR 14.4018 111.181 main 212 191 __________P___ -1 14.4018 111.181 4 11 271
1896275N13118 1896 39 WP MM NOT_NAMED 1896-10-02 16:00:00 NR 14.4000 111.000 main 191 161 __________O___ -1 14.4000 111.000 4 10 268
1896275N13118 1896 39 WP MM NOT_NAMED 1896-10-02 18:00:00 NR 14.3870 110.653 main 161 106 __________P___ -1 14.3870 110.653 4 10 266
1896275N13118 1896 39 WP MM NOT_NAMED 1896-10-02 21:00:00 NR 14.3476 110.162 main 106 58 __________P___ -1 14.3476 110.162 4 9 264
1896275N13118 1896 39 WP MM NOT_NAMED 1896-10-03 00:00:00 NR 14.2907 109.697 main 58 10 __________P___ -1 14.2907 109.697 4 9 262
1896275N13118 1896 39 WP MM NOT_NAMED 1896-10-03 03:00:00 NR 14.2235 109.248 main 10 0 __________P___ -1 14.2235 109.248 4 9 261
1896275N13118 1896 39 WP MM NOT_NAMED 1896-10-03 04:00:00 NR 14.2000 109.100 main 0 __________O___ -1 14.2000 109.100 7 9 261

デジタル台風データ・検索

IBTrACS Databaseについて

本データベースは、米国NOAAが公開する1842年以降の世界の熱帯低気圧のベストトラックデータアーカイブInternational Best Track Archive for Climate Stewardship (IBTrACS)を、ウェブで閲覧しやすい形式に変換したものです。

最終更新日:2021-12-06